Time;durP1;ratioP1;P1;durP2;ratioP2;P2;SDS_P1;SDS_P2;PMS_P1;PMS_P2;Temp;Humidity;BMP_temperature;BMP_pressure;BME280_temperature;BME280_humidity;BME280_pressure;Samples;Min_cycle;Max_cycle;Signal;HPM_P1;HPM_P2
2022/05/01 00:01:05;;;;;;;;;;;11.40;97.50;;;;;;5051305;28;19915;-67
2022/05/01 00:03:31;;;;;;;;;;;11.30;97.50;;;;;;5052147;28;19908;-67
2022/05/01 00:06:01;;;;;;;;;;;11.40;97.50;;;;;;5053238;28;19944;-67
2022/05/01 00:08:27;;;;;;;;;;;11.40;97.60;;;;;;5055660;28;19917;-67
2022/05/01 00:10:53;;;;;;;;;;;11.30;97.70;;;;;;5061623;28;19908;-67
2022/05/01 00:13:19;;;;;;;;;;;11.30;97.70;;;;;;5062211;28;20152;-67
2022/05/01 00:15:45;;;;;;;;;;;11.30;97.70;;;;;;5062206;28;19937;-67
2022/05/01 00:18:10;;;;;;;;;;;11.20;97.80;;;;;;5061921;28;19944;-67
2022/05/01 00:20:36;;;;;;;;;;;11.20;97.90;;;;;;5061748;28;19915;-66
2022/05/01 00:23:02;;;;;;;;;;;11.20;97.90;;;;;;5060363;28;19950;-67
2022/05/01 00:25:28;;;;;;;;;;;11.20;97.80;;;;;;5061919;28;19909;-67
2022/05/01 00:27:54;;;;;;;;;;;11.20;97.90;;;;;;5061784;28;19924;-66
2022/05/01 00:30:20;;;;;;;;;;;11.10;98.10;;;;;;5060640;28;19924;-66
2022/05/01 00:38:14;;;;;;;;;;;11.10;98.20;;;;;;5061229;28;19916;-66
2022/05/01 00:40:40;;;;;;;;;;;11.00;98.30;;;;;;5061251;28;20197;-67
2022/05/01 00:43:05;;;;;;;;;;;11.10;98.30;;;;;;5061205;28;19909;-66
2022/05/01 00:45:31;;;;;;;;;;;11.00;98.20;;;;;;5061608;28;20007;-67
2022/05/01 00:47:57;;;;;;;;;;;11.00;98.30;;;;;;5061359;28;19909;-67
2022/05/01 00:50:23;;;;;;;;;;;11.00;98.30;;;;;;5061487;28;19947;-67
2022/05/01 00:52:49;;;;;;;;;;;11.00;98.40;;;;;;5060756;28;20227;-67
2022/05/01 00:55:15;;;;;;;;;;;10.90;98.70;;;;;;5060284;28;19999;-67
2022/05/01 00:57:42;;;;;;;;;;;10.80;99.00;;;;;;5061312;28;20019;-67
2022/05/01 01:00:08;;;;;;;;;;;10.70;99.10;;;;;;5061207;28;19909;-67
2022/05/01 01:02:33;;;;;;;;;;;10.70;99.20;;;;;;5060726;28;19909;-67
2022/05/01 01:04:59;;;;;;;;;;;10.70;99.20;;;;;;5061099;28;19943;-67
2022/05/01 01:07:28;;;;;;;;;;;10.80;99.20;;;;;;5060971;28;19916;-67
2022/05/01 01:09:54;;;;;;;;;;;10.70;99.20;;;;;;5061149;28;19916;-67
2022/05/01 01:15:08;;;;;;;;;;;10.70;99.40;;;;;;5061269;28;20003;-66
2022/05/01 01:17:41;;;;;;;;;;;10.70;99.30;;;;;;5061424;28;20004;-66
2022/05/01 01:20:21;;;;;;;;;;;10.80;99.20;;;;;;5061290;28;20115;-66
2022/05/01 01:22:48;;;;;;;;;;;10.80;99.10;;;;;;5061138;28;19908;-66
2022/05/01 01:25:15;;;;;;;;;;;10.70;99.30;;;;;;5063878;28;19909;-66
2022/05/01 01:27:41;;;;;;;;;;;10.70;99.50;;;;;;5063916;28;19908;-66
2022/05/01 01:32:52;;;;;;;;;;;10.60;99.80;;;;;;5064543;28;19915;-66
2022/05/01 01:35:23;;;;;;;;;;;10.50;99.90;;;;;;5064860;28;19913;-66
2022/05/01 01:37:49;;;;;;;;;;;10.50;99.90;;;;;;5064659;28;19909;-66
2022/05/01 01:40:23;;;;;;;;;;;10.60;99.90;;;;;;5063563;28;19915;-66
2022/05/01 01:42:50;;;;;;;;;;;10.60;99.90;;;;;;5064400;28;19947;-66
2022/05/01 01:45:16;;;;;;;;;;;10.60;99.80;;;;;;5064642;28;19909;-66
2022/05/01 01:47:43;;;;;;;;;;;10.70;99.70;;;;;;5063965;28;19994;-66
2022/05/01 01:50:09;;;;;;;;;;;10.70;99.60;;;;;;5065105;28;20205;-67
2022/05/01 01:52:35;;;;;;;;;;;10.70;99.60;;;;;;5082187;23;19928;-69
2022/05/01 01:55:01;;;;;;;;;;;10.60;99.80;;;;;;5080618;28;19919;-69
2022/05/01 01:57:26;;;;;;;;;;;10.60;99.90;;;;;;5085378;28;19909;-69
2022/05/01 01:59:52;;;;;;;;;;;10.60;99.80;;;;;;5085568;28;19908;-69
2022/05/01 02:02:18;;;;;;;;;;;10.60;99.80;;;;;;5085084;28;19909;-69
2022/05/01 02:04:43;;;;;;;;;;;10.60;99.80;;;;;;5085475;28;19916;-69
2022/05/01 02:07:10;;;;;;;;;;;10.60;99.90;;;;;;5085405;28;20146;-69
2022/05/01 02:09:37;;;;;;;;;;;10.60;99.90;;;;;;5085213;28;20107;-69
2022/05/01 02:12:08;;;;;;;;;;;10.50;99.90;;;;;;5084938;28;19908;-70
2022/05/01 02:14:36;;;;;;;;;;;10.40;99.90;;;;;;5085204;28;20002;-70
2022/05/01 02:17:05;;;;;;;;;;;10.40;99.90;;;;;;5084137;28;19912;-69
2022/05/01 02:19:30;;;;;;;;;;;10.40;99.90;;;;;;5085277;28;19915;-72
2022/05/01 02:21:56;;;;;;;;;;;10.40;99.90;;;;;;5084972;28;19909;-69
2022/05/01 02:24:25;;;;;;;;;;;10.40;99.90;;;;;;5084637;28;20403;-70
2022/05/01 02:26:50;;;;;;;;;;;10.50;99.90;;;;;;5085075;28;19908;-71
2022/05/01 02:29:16;;;;;;;;;;;10.40;99.90;;;;;;5084947;28;19958;-70
2022/05/01 02:31:43;;;;;;;;;;;10.30;99.90;;;;;;5084647;28;20392;-70
2022/05/01 02:34:09;;;;;;;;;;;10.30;99.90;;;;;;5084445;28;19931;-73
2022/05/01 02:36:35;;;;;;;;;;;10.30;99.90;;;;;;5084880;28;20096;-71
2022/05/01 02:39:01;;;;;;;;;;;10.30;99.90;;;;;;5084653;28;19983;-72
2022/05/01 02:41:28;;;;;;;;;;;10.20;99.90;;;;;;5084368;28;19909;-70
2022/05/01 02:43:54;;;;;;;;;;;10.20;99.90;;;;;;5084763;28;19947;-70
2022/05/01 02:46:19;;;;;;;;;;;10.20;99.90;;;;;;5084564;28;19945;-70
2022/05/01 02:48:45;;;;;;;;;;;10.10;99.90;;;;;;5084618;28;19943;-71
2022/05/01 02:51:11;;;;;;;;;;;10.10;99.90;;;;;;5084249;28;19915;-72
2022/05/01 02:53:38;;;;;;;;;;;10.10;99.90;;;;;;5083963;28;19980;-70
2022/05/01 02:56:03;;;;;;;;;;;10.10;99.90;;;;;;5084425;28;19916;-71
2022/05/01 02:58:29;;;;;;;;;;;10.00;99.90;;;;;;5084398;28;19936;-70
2022/05/01 03:00:55;;;;;;;;;;;10.00;99.90;;;;;;5084043;28;19912;-71
2022/05/01 03:03:21;;;;;;;;;;;10.00;99.90;;;;;;5084281;28;19979;-71
2022/05/01 03:05:47;;;;;;;;;;;9.90;99.90;;;;;;5084400;28;20199;-69
2022/05/01 03:08:13;;;;;;;;;;;9.90;99.90;;;;;;5083938;28;19916;-69
2022/05/01 03:10:39;;;;;;;;;;;9.90;99.90;;;;;;5082414;28;19977;-69
2022/05/01 03:13:05;;;;;;;;;;;9.90;99.90;;;;;;5066634;28;20296;-70
2022/05/01 03:15:31;;;;;;;;;;;9.90;99.90;;;;;;5084222;28;19913;-69
2022/05/01 03:23:25;;;;;;;;;;;9.90;99.90;;;;;;5083519;28;19954;-69
2022/05/01 03:25:51;;;;;;;;;;;9.80;99.90;;;;;;5083909;28;19909;-69
2022/05/01 03:28:16;;;;;;;;;;;9.80;99.90;;;;;;5083975;28;19975;-69
2022/05/01 03:30:42;;;;;;;;;;;9.80;99.90;;;;;;5083460;28;19908;-69
2022/05/01 03:33:08;;;;;;;;;;;9.80;99.90;;;;;;5083618;28;19908;-69
2022/05/01 03:35:36;;;;;;;;;;;9.90;99.90;;;;;;5083733;28;19979;-70
2022/05/01 03:38:03;;;;;;;;;;;9.90;99.90;;;;;;5083422;28;19934;-71
2022/05/01 03:40:28;;;;;;;;;;;9.90;99.90;;;;;;5083528;28;20208;-71
2022/05/01 03:42:54;;;;;;;;;;;9.90;99.90;;;;;;5083366;28;19908;-71
2022/05/01 03:45:20;;;;;;;;;;;9.90;99.90;;;;;;5082912;28;19915;-69
2022/05/01 03:47:46;;;;;;;;;;;10.00;99.90;;;;;;5083481;28;19908;-70
2022/05/01 03:50:11;;;;;;;;;;;10.00;99.90;;;;;;5083457;28;19957;-69
2022/05/01 03:52:38;;;;;;;;;;;9.90;99.90;;;;;;5082625;28;19913;-70
2022/05/01 03:55:04;;;;;;;;;;;9.70;99.90;;;;;;5082249;28;19935;-70
2022/05/01 03:57:32;;;;;;;;;;;9.70;99.90;;;;;;5083358;28;19916;-69
2022/05/01 03:59:58;;;;;;;;;;;9.70;99.90;;;;;;5083318;28;20219;-70
2022/05/01 04:02:23;;;;;;;;;;;9.60;99.90;;;;;;5083003;28;20030;-70
2022/05/01 04:04:49;;;;;;;;;;;9.50;99.90;;;;;;5083322;28;19909;-69
2022/05/01 04:07:15;;;;;;;;;;;9.50;99.90;;;;;;5065338;28;19908;-70
2022/05/01 04:09:41;;;;;;;;;;;9.50;99.90;;;;;;5081841;28;19916;-70
2022/05/01 04:12:07;;;;;;;;;;;9.50;99.90;;;;;;5081685;28;19915;-72
2022/05/01 04:14:33;;;;;;;;;;;9.50;99.90;;;;;;5082997;28;19908;-69
2022/05/01 04:16:59;;;;;;;;;;;9.40;99.90;;;;;;5083077;28;19947;-69
2022/05/01 04:19:31;;;;;;;;;;;9.40;99.90;;;;;;5083097;28;20243;-70
2022/05/01 04:21:56;;;;;;;;;;;9.40;99.90;;;;;;5082171;28;19908;-70
2022/05/01 04:24:23;;;;;;;;;;;9.40;99.90;;;;;;5082638;28;19915;-70
2022/05/01 04:26:48;;;;;;;;;;;9.40;99.90;;;;;;5083030;28;20192;-70
2022/05/01 04:31:59;;;;;;;;;;;9.50;99.90;;;;;;5082819;28;19916;-70
2022/05/01 04:34:24;;;;;;;;;;;9.40;99.90;;;;;;5082984;28;20138;-70
2022/05/01 04:36:50;;;;;;;;;;;9.40;99.90;;;;;;5082867;28;19946;-70
2022/05/01 04:39:16;;;;;;;;;;;9.40;99.90;;;;;;5082629;28;19908;-70
2022/05/01 04:41:43;;;;;;;;;;;9.30;99.90;;;;;;5082614;28;19968;-70
2022/05/01 04:44:09;;;;;;;;;;;9.20;99.90;;;;;;5083205;28;19936;-70
2022/05/01 04:46:34;;;;;;;;;;;9.10;99.90;;;;;;5082830;28;19908;-70
2022/05/01 04:49:00;;;;;;;;;;;9.10;99.90;;;;;;5082782;28;19931;-70
2022/05/01 04:51:26;;;;;;;;;;;9.20;99.90;;;;;;5082482;28;19915;-71
2022/05/01 04:53:51;;;;;;;;;;;9.20;99.90;;;;;;5082232;28;20215;-70
2022/05/01 04:59:01;;;;;;;;;;;9.30;99.90;;;;;;5086877;28;20116;-69
2022/05/01 05:01:27;;;;;;;;;;;9.40;99.90;;;;;;5086448;28;19908;-70
2022/05/01 05:03:52;;;;;;;;;;;9.60;99.90;;;;;;5086698;28;19908;-70
2022/05/01 05:06:18;;;;;;;;;;;9.60;99.90;;;;;;5086663;28;19908;-70
2022/05/01 05:11:28;;;;;;;;;;;9.60;99.90;;;;;;5086485;28;19915;-70
2022/05/01 05:13:53;;;;;;;;;;;9.70;99.90;;;;;;5086463;28;19944;-70
2022/05/01 05:16:19;;;;;;;;;;;9.80;99.90;;;;;;5086583;28;20206;-70
2022/05/01 05:18:45;;;;;;;;;;;9.90;99.90;;;;;;5086478;28;19976;-70
2022/05/01 05:21:10;;;;;;;;;;;10.00;99.90;;;;;;5085915;28;19954;-70
2022/05/01 05:23:36;;;;;;;;;;;10.10;99.90;;;;;;5085896;28;19943;-69
2022/05/01 05:26:02;;;;;;;;;;;10.30;99.90;;;;;;5068365;28;20087;-70
2022/05/01 05:28:27;;;;;;;;;;;10.40;99.90;;;;;;5086368;28;19980;-70
2022/05/01 05:30:53;;;;;;;;;;;10.50;99.90;;;;;;5085878;28;19908;-70
2022/05/01 05:33:19;;;;;;;;;;;10.60;99.90;;;;;;5085371;28;19909;-69
2022/05/01 05:35:45;;;;;;;;;;;10.60;99.90;;;;;;5086083;28;19912;-70
2022/05/01 05:38:11;;;;;;;;;;;10.70;99.90;;;;;;5085380;28;19915;-71
2022/05/01 05:40:38;;;;;;;;;;;10.80;99.90;;;;;;5087112;28;20203;-71
2022/05/01 05:43:03;;;;;;;;;;;10.80;99.90;;;;;;5086258;28;20088;-71
2022/05/01 05:45:29;;;;;;;;;;;10.90;99.90;;;;;;5086033;28;19908;-71
2022/05/01 05:47:55;;;;;;;;;;;10.90;99.90;;;;;;5085856;28;19908;-68
2022/05/01 05:50:21;;;;;;;;;;;11.20;99.40;;;;;;5085871;28;20084;-70
2022/05/01 05:52:46;;;;;;;;;;;11.20;99.00;;;;;;5085332;28;19950;-70
2022/05/01 05:55:12;;;;;;;;;;;11.20;99.10;;;;;;5085660;28;19979;-70
2022/05/01 05:57:38;;;;;;;;;;;11.10;99.00;;;;;;5085656;28;19909;-70
2022/05/01 06:00:04;;;;;;;;;;;11.00;99.30;;;;;;5085652;28;19942;-70
2022/05/01 06:02:30;;;;;;;;;;;10.90;99.30;;;;;;5082744;28;19972;-70
2022/05/01 06:04:58;;;;;;;;;;;10.90;99.30;;;;;;5083152;28;19909;-70
2022/05/01 06:07:23;;;;;;;;;;;10.90;99.30;;;;;;5064449;28;19909;-70
2022/05/01 06:09:49;;;;;;;;;;;10.90;99.30;;;;;;5064383;28;20254;-70
2022/05/01 06:12:15;;;;;;;;;;;10.80;99.50;;;;;;5067934;28;19951;-70
2022/05/01 06:14:41;;;;;;;;;;;11.00;99.20;;;;;;5085151;28;19908;-70
2022/05/01 06:17:06;;;;;;;;;;;10.90;99.20;;;;;;5082222;28;19941;-73
2022/05/01 06:19:32;;;;;;;;;;;10.80;99.50;;;;;;5084510;28;19975;-73
2022/05/01 06:21:58;;;;;;;;;;;10.80;99.50;;;;;;5083162;28;19919;-71
2022/05/01 06:24:23;;;;;;;;;;;10.90;99.10;;;;;;5084604;28;19908;-71
2022/05/01 06:26:49;;;;;;;;;;;10.90;99.30;;;;;;5083132;28;20230;-71
2022/05/01 06:29:15;;;;;;;;;;;11.00;99.10;;;;;;5080947;28;20199;-72
2022/05/01 06:31:40;;;;;;;;;;;10.80;99.20;;;;;;5084458;28;19908;-72
2022/05/01 06:34:06;;;;;;;;;;;10.80;99.30;;;;;;5084684;28;19982;-72
2022/05/01 06:36:32;;;;;;;;;;;10.90;99.50;;;;;;5084045;28;20183;-73
2022/05/01 06:38:58;;;;;;;;;;;10.80;99.50;;;;;;5083731;28;20089;-73
2022/05/01 06:41:24;;;;;;;;;;;11.00;99.20;;;;;;5084584;28;19923;-73
2022/05/01 06:43:50;;;;;;;;;;;11.20;98.70;;;;;;5085069;28;19908;-72
2022/05/01 06:46:16;;;;;;;;;;;11.20;98.80;;;;;;5085320;28;19976;-72
2022/05/01 06:48:42;;;;;;;;;;;11.30;98.70;;;;;;5085071;28;19909;-72
2022/05/01 06:51:08;;;;;;;;;;;11.30;98.80;;;;;;5084577;28;19979;-72
2022/05/01 06:53:33;;;;;;;;;;;11.50;98.60;;;;;;5084528;28;19920;-72
2022/05/01 06:55:59;;;;;;;;;;;11.50;98.40;;;;;;5084532;28;20255;-72
2022/05/01 06:58:25;;;;;;;;;;;11.60;98.20;;;;;;5084567;28;19909;-72
2022/05/01 07:00:52;;;;;;;;;;;11.60;97.90;;;;;;5083916;28;19909;-73
2022/05/01 07:03:21;;;;;;;;;;;11.60;97.80;;;;;;5084258;28;20223;-72
2022/05/01 07:05:47;;;;;;;;;;;11.60;97.70;;;;;;5083226;28;19994;-72
2022/05/01 07:08:13;;;;;;;;;;;11.60;97.70;;;;;;5082999;28;19909;-72
2022/05/01 07:10:38;;;;;;;;;;;11.60;97.50;;;;;;5084005;28;19983;-72
2022/05/01 07:13:04;;;;;;;;;;;11.80;97.50;;;;;;5084018;28;19909;-72
2022/05/01 07:15:30;;;;;;;;;;;11.90;97.40;;;;;;5084133;28;20159;-72
2022/05/01 07:17:56;;;;;;;;;;;12.10;96.90;;;;;;5084219;28;19913;-71
2022/05/01 07:20:21;;;;;;;;;;;12.30;96.90;;;;;;5083136;28;20262;-71
2022/05/01 07:22:47;;;;;;;;;;;12.50;96.50;;;;;;5083621;28;19908;-72
2022/05/01 07:25:13;;;;;;;;;;;12.60;95.90;;;;;;5083789;28;20313;-71
2022/05/01 07:27:38;;;;;;;;;;;12.70;95.50;;;;;;5084073;28;19936;-70
2022/05/01 07:30:05;;;;;;;;;;;12.80;95.00;;;;;;5083860;28;19912;-71
2022/05/01 07:32:30;;;;;;;;;;;13.00;94.70;;;;;;5083557;28;20015;-71
2022/05/01 07:34:56;;;;;;;;;;;13.00;94.60;;;;;;5083171;28;19916;-71
2022/05/01 07:37:24;;;;;;;;;;;13.00;94.40;;;;;;5083506;28;19909;-71
2022/05/01 07:39:51;;;;;;;;;;;13.10;94.60;;;;;;5083614;28;19912;-72
2022/05/01 07:42:16;;;;;;;;;;;13.20;94.30;;;;;;5083325;28;20276;-71
2022/05/01 07:44:42;;;;;;;;;;;13.30;94.30;;;;;;5082467;28;19912;-72
2022/05/01 07:47:08;;;;;;;;;;;13.40;93.80;;;;;;5083531;28;20115;-72
2022/05/01 07:49:33;;;;;;;;;;;13.50;93.40;;;;;;5083523;28;19936;-73
2022/05/01 07:51:59;;;;;;;;;;;13.50;93.30;;;;;;5083192;28;19909;-71
2022/05/01 07:54:25;;;;;;;;;;;13.60;93.20;;;;;;5065058;22;19921;-70
2022/05/01 07:56:51;;;;;;;;;;;13.60;93.00;;;;;;5027274;28;20319;-70
2022/05/01 07:59:17;;;;;;;;;;;13.80;92.40;;;;;;5028107;28;20227;-71
2022/05/01 08:01:42;;;;;;;;;;;13.60;92.70;;;;;;5028463;28;19909;-69
2022/05/01 08:06:52;;;;;;;;;;;13.40;93.10;;;;;;5027473;28;19922;-70
2022/05/01 08:09:18;;;;;;;;;;;13.50;92.80;;;;;;5031229;28;19909;-70
2022/05/01 08:11:44;;;;;;;;;;;13.50;92.60;;;;;;5029804;28;19977;-70
2022/05/01 08:14:12;;;;;;;;;;;13.40;92.90;;;;;;5041820;28;19909;-70
2022/05/01 08:16:41;;;;;;;;;;;13.30;92.70;;;;;;5015280;28;19920;-69
2022/05/01 08:21:51;;;;;;;;;;;13.40;92.30;;;;;;5022943;28;20231;-70
2022/05/01 08:24:16;;;;;;;;;;;13.40;92.70;;;;;;5022724;28;19913;-70
2022/05/01 08:26:47;;;;;;;;;;;13.50;92.30;;;;;;5023024;28;19917;-70
2022/05/01 08:29:14;;;;;;;;;;;13.40;92.10;;;;;;5023105;28;20163;-71
2022/05/01 08:31:40;;;;;;;;;;;13.60;91.90;;;;;;5022418;28;19910;-70
2022/05/01 08:34:07;;;;;;;;;;;13.90;91.90;;;;;;5022770;28;19913;-67
2022/05/01 08:36:33;;;;;;;;;;;14.10;90.90;;;;;;5024195;28;19921;-67
2022/05/01 08:38:59;;;;;;;;;;;14.30;90.90;;;;;;5045013;28;19948;-67
2022/05/01 08:41:25;;;;;;;;;;;14.40;90.50;;;;;;5022441;28;19948;-67
2022/05/01 08:43:51;;;;;;;;;;;14.60;90.70;;;;;;5021725;28;19909;-66
2022/05/01 08:46:41;;;;;;;;;;;14.60;90.50;;;;;;5038118;28;19987;-67
2022/05/01 08:49:07;;;;;;;;;;;14.70;91.00;;;;;;5022734;28;19909;-67
2022/05/01 08:51:42;;;;;;;;;;;14.80;89.70;;;;;;5021496;28;19909;-66
2022/05/01 08:54:09;;;;;;;;;;;14.80;89.30;;;;;;5022303;28;20105;-67
2022/05/01 08:56:35;;;;;;;;;;;14.70;89.30;;;;;;5022696;28;19941;-67
2022/05/01 08:59:06;;;;;;;;;;;14.70;89.80;;;;;;5022797;28;19935;-67
2022/05/01 09:01:33;;;;;;;;;;;14.70;89.50;;;;;;5037472;28;19915;-67
2022/05/01 09:03:59;;;;;;;;;;;14.70;88.80;;;;;;5022668;28;20410;-67
2022/05/01 09:06:25;;;;;;;;;;;14.70;89.30;;;;;;5022634;28;19932;-67
2022/05/01 09:08:51;;;;;;;;;;;14.80;88.30;;;;;;5022520;28;19977;-67
2022/05/01 09:14:04;;;;;;;;;;;15.10;87.40;;;;;;5021178;28;19932;-67
2022/05/01 09:16:29;;;;;;;;;;;15.30;85.70;;;;;;5022607;28;19980;-67
2022/05/01 09:18:55;;;;;;;;;;;15.30;85.90;;;;;;5022645;28;19912;-67
2022/05/01 09:21:21;;;;;;;;;;;15.30;85.10;;;;;;5022355;28;20112;-67
2022/05/01 09:23:47;;;;;;;;;;;15.30;84.90;;;;;;5022012;28;19909;-66
2022/05/01 09:26:14;;;;;;;;;;;15.60;83.80;;;;;;5022600;28;19972;-67
2022/05/01 09:28:46;;;;;;;;;;;15.60;83.20;;;;;;5022466;28;19913;-67
2022/05/01 09:31:12;;;;;;;;;;;15.50;84.10;;;;;;5022199;28;19960;-66
2022/05/01 09:33:38;;;;;;;;;;;15.60;84.00;;;;;;5022255;28;19909;-67
2022/05/01 09:36:04;;;;;;;;;;;15.50;84.40;;;;;;5022632;28;20420;-67
2022/05/01 09:38:29;;;;;;;;;;;15.60;84.50;;;;;;5022239;28;19937;-66
2022/05/01 09:41:01;;;;;;;;;;;15.70;84.30;;;;;;5022140;28;19932;-66
2022/05/01 09:43:35;;;;;;;;;;;15.70;83.90;;;;;;5022357;28;19987;-67
2022/05/01 09:46:20;;;;;;;;;;;15.80;82.20;;;;;;5029334;28;19921;-67
2022/05/01 09:49:24;;;;;;;;;;;15.70;83.40;;;;;;5030200;28;19980;-67
2022/05/01 09:51:54;;;;;;;;;;;15.90;83.10;;;;;;5030393;28;20128;-67
2022/05/01 09:54:23;;;;;;;;;;;16.10;82.50;;;;;;5040555;28;19920;-66
2022/05/01 09:56:51;;;;;;;;;;;16.20;82.30;;;;;;5025774;28;19913;-66
2022/05/01 09:59:18;;;;;;;;;;;16.30;80.80;;;;;;5025570;28;19917;-65
2022/05/01 10:02:02;;;;;;;;;;;16.40;81.10;;;;;;5036151;28;20081;-65
2022/05/01 10:04:28;;;;;;;;;;;16.20;80.30;;;;;;5035777;28;19937;-73
2022/05/01 10:06:55;;;;;;;;;;;16.50;80.80;;;;;;5030745;28;19915;-72
2022/05/01 10:09:23;;;;;;;;;;;16.70;78.60;;;;;;5025042;28;19909;-72
2022/05/01 10:11:49;;;;;;;;;;;16.80;77.70;;;;;;5041521;28;19918;-73
2022/05/01 10:14:18;;;;;;;;;;;17.00;77.60;;;;;;5008443;28;19932;-73
2022/05/01 10:16:43;;;;;;;;;;;17.20;76.40;;;;;;5024988;28;19919;-73
2022/05/01 10:19:09;;;;;;;;;;;17.30;75.60;;;;;;5024854;28;19909;-73
2022/05/01 10:21:35;;;;;;;;;;;17.50;74.90;;;;;;5041467;28;19989;-73
2022/05/01 10:24:01;;;;;;;;;;;17.70;74.60;;;;;;5008726;28;19984;-72
2022/05/01 10:26:30;;;;;;;;;;;18.00;72.90;;;;;;5025557;28;19916;-72
2022/05/01 10:29:28;;;;;;;;;;;18.00;71.50;;;;;;5025865;28;20193;-73
2022/05/01 10:35:20;;;;;;;;;;;18.10;71.90;;;;;;5025358;28;20219;-73
2022/05/01 10:38:11;;;;;;;;;;;18.40;70.10;;;;;;5026300;28;19914;-72
2022/05/01 10:40:53;;;;;;;;;;;18.60;69.70;;;;;;5026106;28;19960;-72
2022/05/01 10:43:33;;;;;;;;;;;18.80;69.30;;;;;;5024626;28;19910;-73
2022/05/01 10:46:04;;;;;;;;;;;18.70;67.20;;;;;;5024643;28;19921;-71
2022/05/01 10:48:36;;;;;;;;;;;18.70;67.30;;;;;;5021329;28;19917;-73
2022/05/01 10:51:30;;;;;;;;;;;18.80;67.10;;;;;;5030899;28;20208;-73
2022/05/01 10:54:14;;;;;;;;;;;19.00;66.00;;;;;;5025520;28;19920;-73
2022/05/01 10:56:45;;;;;;;;;;;19.00;65.30;;;;;;5034995;28;19917;-73
2022/05/01 10:59:29;;;;;;;;;;;18.90;63.70;;;;;;5036314;28;19936;-72
2022/05/01 11:02:03;;;;;;;;;;;19.00;65.40;;;;;;5035390;28;19914;-73
2022/05/01 11:04:32;;;;;;;;;;;18.70;66.00;;;;;;5024188;28;19909;-74
2022/05/01 11:06:58;;;;;;;;;;;18.40;68.90;;;;;;5027544;28;19932;-73
2022/05/01 11:09:24;;;;;;;;;;;18.30;68.90;;;;;;5036496;28;19901;-72
2022/05/01 11:11:56;;;;;;;;;;;18.20;69.20;;;;;;5035073;28;19909;-73
2022/05/01 11:14:35;;;;;;;;;;;18.10;70.10;;;;;;5034388;28;20029;-73
2022/05/01 11:17:01;;;;;;;;;;;17.70;70.80;;;;;;5049532;28;19928;-73
2022/05/01 11:19:34;;;;;;;;;;;17.60;71.90;;;;;;5042413;28;19909;-73
2022/05/01 11:22:07;;;;;;;;;;;17.60;71.40;;;;;;5024975;28;19910;-73
2022/05/01 11:24:45;;;;;;;;;;;17.70;71.60;;;;;;5024780;28;19968;-73
2022/05/01 11:27:16;;;;;;;;;;;17.80;71.30;;;;;;5025427;28;20208;-69
2022/05/01 11:30:06;;;;;;;;;;;17.80;70.30;;;;;;5024142;28;19922;-70
2022/05/01 11:32:45;;;;;;;;;;;17.80;71.70;;;;;;5005770;28;19910;-72
2022/05/01 11:35:11;;;;;;;;;;;17.70;70.90;;;;;;5024348;28;19920;-72
2022/05/01 11:38:06;;;;;;;;;;;17.70;70.10;;;;;;5023431;28;19909;-71
2022/05/01 11:40:32;;;;;;;;;;;17.50;71.80;;;;;;5024273;28;19913;-68
2022/05/01 11:43:17;;;;;;;;;;;17.60;73.20;;;;;;5023460;28;19914;-67
2022/05/01 11:45:43;;;;;;;;;;;17.70;71.20;;;;;;5023642;28;19941;-65
2022/05/01 11:48:16;;;;;;;;;;;17.70;70.20;;;;;;5038847;28;19984;-66
2022/05/01 11:50:42;;;;;;;;;;;17.70;69.60;;;;;;5038627;28;19914;-66
2022/05/01 11:53:29;;;;;;;;;;;17.70;69.60;;;;;;5023102;28;19960;-71
2022/05/01 12:04:25;;;;;;;;;;;17.80;68.90;;;;;;5021206;28;19920;-72
2022/05/01 12:07:14;;;;;;;;;;;17.90;69.50;;;;;;5022146;28;19916;-72
2022/05/01 12:09:40;;;;;;;;;;;18.00;68.60;;;;;;5023260;28;20112;-80
2022/05/01 12:12:08;;;;;;;;;;;18.20;68.80;;;;;;5024299;28;19909;-81
2022/05/01 12:14:34;;;;;;;;;;;18.50;68.00;;;;;;5009072;28;19916;-80
2022/05/01 12:16:59;;;;;;;;;;;18.50;66.70;;;;;;5025686;28;19914;-80
2022/05/01 12:19:35;;;;;;;;;;;18.50;67.40;;;;;;5024715;28;20109;-81
2022/05/01 12:22:00;;;;;;;;;;;18.60;67.00;;;;;;5024234;28;19913;-81
2022/05/01 12:24:26;;;;;;;;;;;18.60;67.30;;;;;;5024561;28;19948;-80
2022/05/01 12:26:52;;;;;;;;;;;18.50;67.00;;;;;;5024335;28;19945;-76
2022/05/01 12:29:18;;;;;;;;;;;18.40;66.80;;;;;;5024356;28;19981;-81
2022/05/01 12:32:00;;;;;;;;;;;18.30;67.10;;;;;;5040008;28;19910;-80
2022/05/01 12:34:27;;;;;;;;;;;18.20;68.00;;;;;;5021059;28;20227;-81
2022/05/01 12:36:55;;;;;;;;;;;18.10;67.80;;;;;;5007518;28;19913;-80
2022/05/01 12:39:22;;;;;;;;;;;17.90;67.60;;;;;;5035948;28;19920;-80
2022/05/01 12:45:13;;;;;;;;;;;17.60;69.20;;;;;;5017999;28;19936;-80
2022/05/01 12:47:42;;;;;;;;;;;17.40;70.10;;;;;;5023977;28;19910;-80
2022/05/01 12:50:10;;;;;;;;;;;17.30;71.20;;;;;;5023861;28;19917;-80
2022/05/01 12:52:37;;;;;;;;;;;17.10;71.50;;;;;;5006836;28;19910;-81
2022/05/01 12:55:14;;;;;;;;;;;17.10;71.70;;;;;;5040334;28;19914;-81
2022/05/01 12:57:40;;;;;;;;;;;17.10;71.50;;;;;;5039399;28;19916;-81
2022/05/01 13:00:07;;;;;;;;;;;17.00;72.00;;;;;;5026611;28;19910;-80
2022/05/01 13:02:33;;;;;;;;;;;16.90;72.90;;;;;;5025005;28;19941;-82
2022/05/01 13:04:59;;;;;;;;;;;16.90;72.20;;;;;;5040345;28;20120;-80
2022/05/01 13:07:33;;;;;;;;;;;16.90;73.50;;;;;;5025201;28;19913;-81
2022/05/01 13:09:59;;;;;;;;;;;16.90;73.30;;;;;;5025681;28;19916;-80
2022/05/01 13:12:34;;;;;;;;;;;16.80;73.90;;;;;;5026477;28;19914;-80
2022/05/01 13:15:04;;;;;;;;;;;16.70;73.30;;;;;;5030484;28;19951;-79
2022/05/01 13:17:31;;;;;;;;;;;16.70;74.50;;;;;;5030565;28;19905;-80
2022/05/01 13:19:57;;;;;;;;;;;16.70;74.70;;;;;;5034652;28;19910;-80
2022/05/01 13:22:23;;;;;;;;;;;16.60;73.40;;;;;;5031138;28;19920;-69
2022/05/01 13:24:52;;;;;;;;;;;16.60;72.60;;;;;;5024379;28;19926;-80
2022/05/01 13:27:19;;;;;;;;;;;16.50;73.30;;;;;;5035724;28;19935;-79
2022/05/01 13:29:45;;;;;;;;;;;16.50;74.50;;;;;;5032849;28;20086;-79
2022/05/01 13:32:11;;;;;;;;;;;16.50;75.20;;;;;;5047495;28;19976;-79
2022/05/01 13:34:41;;;;;;;;;;;16.40;75.60;;;;;;5044648;28;19922;-79
2022/05/01 13:37:08;;;;;;;;;;;16.30;76.00;;;;;;5044364;28;20097;-80
2022/05/01 13:45:03;;;;;;;;;;;16.40;73.50;;;;;;5036350;28;19951;-79
2022/05/01 13:47:29;;;;;;;;;;;16.50;74.60;;;;;;5049045;28;19924;-80
2022/05/01 13:49:56;;;;;;;;;;;16.50;74.40;;;;;;5034838;28;19913;-80
2022/05/01 13:52:23;;;;;;;;;;;16.40;75.40;;;;;;5047340;28;19910;-79
2022/05/01 13:54:49;;;;;;;;;;;16.50;74.00;;;;;;5041809;23;19963;-68
2022/05/01 13:57:15;;;;;;;;;;;16.40;73.40;;;;;;5044365;28;19917;-66
2022/05/01 13:59:41;;;;;;;;;;;16.40;74.20;;;;;;5044038;28;19909;-66
2022/05/01 14:02:08;;;;;;;;;;;16.40;74.40;;;;;;5042471;28;19913;-66
2022/05/01 14:04:33;;;;;;;;;;;16.40;73.10;;;;;;5053992;28;19909;-67
2022/05/01 14:06:59;;;;;;;;;;;16.40;73.70;;;;;;5031665;28;19977;-67
2022/05/01 14:09:25;;;;;;;;;;;16.30;75.00;;;;;;5033449;28;19924;-67
2022/05/01 14:11:52;;;;;;;;;;;16.30;75.70;;;;;;5034185;28;19913;-67
2022/05/01 14:14:18;;;;;;;;;;;16.30;76.80;;;;;;5036009;28;19928;-67
2022/05/01 14:16:44;;;;;;;;;;;16.20;76.80;;;;;;5033269;28;20062;-67
2022/05/01 14:19:11;;;;;;;;;;;16.20;76.10;;;;;;5032502;28;20130;-67
2022/05/01 14:21:40;;;;;;;;;;;16.30;75.40;;;;;;5033207;28;19909;-67
2022/05/01 14:24:07;;;;;;;;;;;16.20;74.90;;;;;;5033843;28;19913;-67
2022/05/01 14:26:33;;;;;;;;;;;16.20;75.60;;;;;;5034405;28;19935;-67
2022/05/01 14:28:59;;;;;;;;;;;16.30;74.90;;;;;;5032233;28;19910;-67
2022/05/01 14:31:47;;;;;;;;;;;16.40;73.60;;;;;;5034787;28;19987;-67
2022/05/01 14:34:15;;;;;;;;;;;16.30;73.60;;;;;;5031704;28;19909;-67
2022/05/01 14:36:43;;;;;;;;;;;16.40;74.30;;;;;;5030783;28;19961;-67
2022/05/01 14:39:10;;;;;;;;;;;16.50;73.30;;;;;;5013661;28;19909;-66
2022/05/01 14:41:49;;;;;;;;;;;16.60;70.70;;;;;;5031916;28;19914;-66
2022/05/01 14:44:21;;;;;;;;;;;16.50;73.10;;;;;;5030145;28;19917;-67
2022/05/01 14:46:47;;;;;;;;;;;16.50;72.30;;;;;;5037651;28;19909;-67
2022/05/01 14:49:28;;;;;;;;;;;16.50;73.10;;;;;;5036096;28;19929;-66
2022/05/01 14:52:02;;;;;;;;;;;16.50;74.10;;;;;;5045684;28;19976;-66
2022/05/01 14:54:32;;;;;;;;;;;16.50;74.10;;;;;;5029876;28;19920;-67
2022/05/01 14:57:00;;;;;;;;;;;16.50;72.40;;;;;;5052875;28;19957;-66
2022/05/01 15:07:53;;;;;;;;;;;16.60;68.40;;;;;;5037015;28;20007;-66
2022/05/01 15:10:21;;;;;;;;;;;16.60;68.70;;;;;;5039525;28;19919;-66
2022/05/01 15:12:48;;;;;;;;;;;16.60;69.90;;;;;;5030987;28;19928;-66
2022/05/01 15:15:14;;;;;;;;;;;16.60;70.80;;;;;;5023320;28;19947;-67
2022/05/01 15:17:39;;;;;;;;;;;16.60;71.30;;;;;;5037828;28;19940;-67
2022/05/01 15:20:31;;;;;;;;;;;16.70;71.60;;;;;;5048686;28;19917;-67
2022/05/01 15:23:14;;;;;;;;;;;16.70;70.70;;;;;;5025593;28;20201;-67
2022/05/01 15:25:49;;;;;;;;;;;16.70;70.00;;;;;;5029542;28;20012;-67